createdAt,value
2023-03-10T00:00:08.849Z,16.23
2023-03-10T00:02:36.626Z,15.93
2023-03-10T00:05:04.788Z,13.33
2023-03-10T00:07:32.493Z,17.97
2023-03-10T00:10:00.132Z,13.47
2023-03-10T00:12:27.927Z,15.83
2023-03-10T00:14:57.379Z,10.40
2023-03-10T00:17:25.114Z,17.17
2023-03-10T00:19:52.817Z,18.00
2023-03-10T00:22:20.537Z,17.27
2023-03-10T00:24:48.268Z,16.93
2023-03-10T00:27:15.931Z,18.60
2023-03-10T00:29:43.631Z,15.53
2023-03-10T00:32:12.707Z,16.03
2023-03-10T00:34:40.406Z,12.97
2023-03-10T00:37:08.100Z,12.97
2023-03-10T00:39:35.735Z,14.90
2023-03-10T00:42:03.492Z,12.77
2023-03-10T00:44:31.181Z,10.20
2023-03-10T00:46:58.831Z,12.53
2023-03-10T00:49:27.909Z,11.40
2023-03-10T00:51:55.540Z,19.63
2023-03-10T00:54:23.216Z,15.83
2023-03-10T00:56:50.888Z,12.77
2023-03-10T00:59:18.559Z,17.30
2023-03-10T01:01:46.303Z,17.90
2023-03-10T01:04:16.170Z,19.97
2023-03-10T01:06:47.563Z,10.73
2023-03-10T01:09:15.524Z,15.87
2023-03-10T01:11:43.359Z,11.23
2023-03-10T01:14:14.315Z,16.60
2023-03-10T01:16:41.965Z,16.73
2023-03-10T01:19:09.952Z,11.90
2023-03-10T01:21:39.290Z,19.80
2023-03-10T01:24:08.929Z,13.63
2023-03-10T01:26:36.637Z,16.93
2023-03-10T01:29:04.366Z,15.93
2023-03-10T01:31:32.170Z,17.90
2023-03-10T01:33:59.895Z,17.53
2023-03-10T01:36:28.047Z,10.53
2023-03-10T01:38:57.456Z,18.00
2023-03-10T01:41:26.833Z,10.57
2023-03-10T01:43:56.128Z,15.30
2023-03-10T01:46:44.603Z,8.60
2023-03-10T01:49:17.975Z,10.43
2023-03-10T01:51:50.077Z,15.40
2023-03-10T01:54:20.342Z,15.03
2023-03-10T01:56:51.069Z,13.27
2023-03-10T01:59:19.458Z,10.27
2023-03-10T02:01:47.384Z,15.83
2023-03-10T02:04:18.348Z,10.10
2023-03-10T02:06:47.520Z,15.17
2023-03-10T02:09:16.082Z,15.07
2023-03-10T02:11:44.151Z,11.37
2023-03-10T02:14:13.492Z,9.13
2023-03-10T02:16:41.315Z,12.47
2023-03-10T02:19:15.917Z,10.50
2023-03-10T02:21:45.573Z,12.03
2023-03-10T02:24:17.460Z,8.17
2023-03-10T02:26:51.656Z,8.23
2023-03-10T02:29:24.034Z,9.30
2023-03-10T02:31:52.449Z,10.43
2023-03-10T02:34:20.388Z,10.23
2023-03-10T02:36:48.051Z,12.10
2023-03-10T02:39:15.771Z,11.50
2023-03-10T02:41:45.434Z,11.27
2023-03-10T02:44:15.623Z,7.93
2023-03-10T02:46:44.717Z,10.73
2023-03-10T02:49:12.564Z,10.83
2023-03-10T02:51:43.182Z,6.33
2023-03-10T02:54:11.311Z,8.63
2023-03-10T02:56:39.704Z,10.03
2023-03-10T02:59:08.098Z,9.60
2023-03-10T03:01:36.227Z,9.60
2023-03-10T03:04:05.427Z,6.90
2023-03-10T03:06:33.137Z,8.50
2023-03-10T03:09:00.852Z,7.03
2023-03-10T03:11:28.851Z,8.57
2023-03-10T03:13:56.564Z,10.43
2023-03-10T03:16:24.292Z,10.60
2023-03-10T03:18:52.175Z,8.30
2023-03-10T03:21:21.513Z,7.27
2023-03-10T03:23:49.379Z,9.50
2023-03-10T03:26:19.207Z,7.13
2023-03-10T03:28:46.942Z,6.60
2023-03-10T03:31:16.760Z,6.10
2023-03-10T03:33:44.828Z,10.70
2023-03-10T03:36:12.763Z,7.17
2023-03-10T03:38:41.887Z,7.87
2023-03-10T03:41:10.276Z,10.40
2023-03-10T03:43:37.988Z,8.57
2023-03-10T03:46:06.241Z,9.60
2023-03-10T03:48:34.884Z,7.63
2023-03-10T03:51:03.377Z,9.00
2023-03-10T03:53:31.652Z,8.03
2023-03-10T03:56:00.840Z,10.90
2023-03-10T03:58:28.592Z,9.30
2023-03-10T04:00:56.294Z,8.43
2023-03-10T04:03:24.089Z,8.80
2023-03-10T04:05:51.818Z,8.10
2023-03-10T04:08:19.491Z,8.47
2023-03-10T04:10:51.674Z,6.60
2023-03-10T04:13:21.028Z,8.83
2023-03-10T04:15:48.792Z,8.10
2023-03-10T04:18:16.532Z,6.93
2023-03-10T04:20:44.183Z,7.67
2023-03-10T04:23:11.809Z,8.73
2023-03-10T04:25:42.231Z,10.13
2023-03-10T04:28:09.986Z,6.40
2023-03-10T04:30:39.207Z,8.20
2023-03-10T04:33:07.631Z,7.60
2023-03-10T04:35:35.318Z,8.80
2023-03-10T04:38:03.987Z,6.53
2023-03-10T04:40:31.656Z,7.77
2023-03-10T04:42:59.408Z,5.83
2023-03-10T04:45:27.132Z,7.97
2023-03-10T04:47:56.222Z,8.27
2023-03-10T04:50:23.909Z,7.17
2023-03-10T04:52:51.655Z,5.73
2023-03-10T04:55:19.439Z,5.10
2023-03-10T04:57:47.175Z,7.47
2023-03-10T05:00:15.263Z,7.77
2023-03-10T05:02:43.434Z,7.70
2023-03-10T05:05:13.196Z,6.57
2023-03-10T05:07:41.335Z,9.07
2023-03-10T05:10:10.276Z,9.63
2023-03-10T05:12:38.725Z,6.80
2023-03-10T05:15:07.694Z,8.77
2023-03-10T05:17:35.392Z,6.77
2023-03-10T05:20:04.102Z,8.07
2023-03-10T05:22:33.098Z,6.10
2023-03-10T05:25:00.829Z,10.93
2023-03-10T05:27:28.509Z,7.50
2023-03-10T05:29:56.270Z,7.07
2023-03-10T05:32:24.076Z,6.70
2023-03-10T05:34:52.536Z,10.50
2023-03-10T05:37:20.263Z,7.63
2023-03-10T05:39:49.275Z,9.00
2023-03-10T05:42:16.987Z,8.47
2023-03-10T05:44:44.646Z,9.20
2023-03-10T05:47:14.001Z,12.93
2023-03-10T05:49:41.683Z,13.73
2023-03-10T05:52:09.399Z,15.00
2023-03-10T05:54:37.355Z,15.63
2023-03-10T05:57:06.871Z,16.60
2023-03-10T05:59:34.650Z,17.00
2023-03-10T06:02:02.380Z,11.67
2023-03-10T06:04:32.252Z,17.00
2023-03-10T06:07:00.761Z,13.87
2023-03-10T06:09:28.610Z,15.37
2023-03-10T06:11:56.255Z,14.77
2023-03-10T06:14:25.780Z,12.00
2023-03-10T06:16:54.956Z,12.30
2023-03-10T06:19:23.830Z,10.60
2023-03-10T06:21:51.588Z,11.27
2023-03-10T06:24:19.394Z,10.70
2023-03-10T06:26:47.103Z,13.70
2023-03-10T06:29:14.795Z,11.53
2023-03-10T06:31:43.907Z,12.07
2023-03-10T06:34:11.705Z,12.40
2023-03-10T06:36:40.408Z,10.63
2023-03-10T06:39:08.228Z,7.77
2023-03-10T06:41:36.740Z,10.50
2023-03-10T06:44:04.472Z,8.17
2023-03-10T06:46:32.247Z,8.20
2023-03-10T06:49:01.281Z,11.53
2023-03-10T06:51:28.930Z,10.20
2023-03-10T06:53:57.577Z,7.60
2023-03-10T06:56:25.295Z,12.43
2023-03-10T06:58:53.011Z,12.90
2023-03-10T07:01:22.771Z,9.17
2023-03-10T07:03:50.581Z,8.63
2023-03-10T07:06:19.652Z,8.50
2023-03-10T07:08:47.428Z,12.93
2023-03-10T07:11:15.448Z,12.30
2023-03-10T07:13:43.242Z,14.83
2023-03-10T07:16:11.154Z,15.03
2023-03-10T07:18:38.846Z,13.63
2023-03-10T07:21:08.742Z,13.00
2023-03-10T07:23:37.995Z,7.97
2023-03-10T07:26:08.604Z,13.37
2023-03-10T07:28:36.835Z,14.03
2023-03-10T07:31:05.431Z,11.20
2023-03-10T07:33:33.277Z,13.80
2023-03-10T07:36:01.119Z,9.90
2023-03-10T07:38:28.848Z,15.43
2023-03-10T07:40:58.369Z,14.23
2023-03-10T07:43:26.783Z,15.43
2023-03-10T07:45:54.804Z,16.93
2023-03-10T07:48:22.507Z,17.57
2023-03-10T07:50:56.955Z,13.20
2023-03-10T07:53:24.619Z,15.37
2023-03-10T07:55:52.544Z,15.33
2023-03-10T07:58:21.938Z,15.27
2023-03-10T08:00:54.948Z,19.57
2023-03-10T08:03:22.816Z,18.90
2023-03-10T08:05:50.625Z,20.10
2023-03-10T08:08:18.786Z,13.57
2023-03-10T08:10:46.494Z,12.67
2023-03-10T08:13:14.603Z,13.17
2023-03-10T08:15:43.746Z,12.90
2023-03-10T08:18:11.476Z,15.03
2023-03-10T08:20:40.594Z,15.03
2023-03-10T08:23:08.431Z,20.43
2023-03-10T08:25:36.581Z,14.97
2023-03-10T08:28:04.405Z,16.90
2023-03-10T08:30:32.099Z,19.10
2023-03-10T08:33:01.271Z,28.87
2023-03-10T08:35:29.094Z,15.30
2023-03-10T08:37:56.805Z,22.17
2023-03-10T08:40:24.725Z,24.50
2023-03-10T08:42:53.117Z,21.73
2023-03-10T08:45:21.118Z,18.70
2023-03-10T08:47:48.813Z,22.33
2023-03-10T08:50:18.077Z,21.97
2023-03-10T08:52:45.845Z,21.37
2023-03-10T08:55:13.554Z,20.73
2023-03-10T08:57:41.257Z,18.67
2023-03-10T09:00:12.567Z,19.47
2023-03-10T09:02:40.531Z,22.43
2023-03-10T09:05:10.466Z,16.13
2023-03-10T09:07:39.553Z,19.83
2023-03-10T09:10:07.569Z,23.97
2023-03-10T09:12:39.003Z,24.20
2023-03-10T09:15:07.880Z,16.17
2023-03-10T09:17:35.623Z,15.50
2023-03-10T09:20:06.411Z,19.53
2023-03-10T09:22:34.091Z,13.50
2023-03-10T09:25:03.239Z,20.50
2023-03-10T09:27:30.960Z,20.03
2023-03-10T09:30:00.658Z,19.57
2023-03-10T09:32:29.309Z,18.40
2023-03-10T09:34:57.065Z,21.03
2023-03-10T09:37:24.709Z,23.43
2023-03-10T09:39:52.645Z,22.23
2023-03-10T09:42:39.045Z,18.53
2023-03-10T09:45:26.781Z,15.40
2023-03-10T09:48:06.250Z,20.13
2023-03-10T09:50:36.167Z,17.10
2023-03-10T09:53:09.053Z,20.13
2023-03-10T09:55:47.590Z,19.47
2023-03-10T09:58:28.053Z,17.63
2023-03-10T10:00:55.829Z,10.10
2023-03-10T10:03:25.289Z,14.77
2023-03-10T10:05:55.341Z,21.13
2023-03-10T10:08:28.438Z,15.87
2023-03-10T10:10:58.352Z,14.80
2023-03-10T10:13:30.542Z,16.57
2023-03-10T10:16:21.239Z,9.93
2023-03-10T10:18:52.452Z,18.40
2023-03-10T10:21:25.971Z,16.73
2023-03-10T10:23:56.026Z,12.07
2023-03-10T10:26:26.786Z,11.70
2023-03-10T10:28:56.993Z,11.00
2023-03-10T10:31:27.319Z,11.97
2023-03-10T10:33:57.630Z,13.57
2023-03-10T10:36:27.801Z,7.03
2023-03-10T10:38:56.443Z,11.87
2023-03-10T10:41:27.327Z,9.93
2023-03-10T10:43:59.129Z,10.43
2023-03-10T10:46:29.288Z,8.00
2023-03-10T10:49:05.936Z,9.33
2023-03-10T10:51:35.968Z,8.33
2023-03-10T10:54:06.302Z,7.30
2023-03-10T10:56:34.103Z,10.43
2023-03-10T10:59:06.685Z,6.57
2023-03-10T11:01:53.084Z,8.20
2023-03-10T11:04:21.857Z,9.27
2023-03-10T11:06:50.904Z,11.43
2023-03-10T11:09:20.971Z,8.83
2023-03-10T11:11:55.385Z,11.20
2023-03-10T11:14:35.621Z,10.93
2023-03-10T11:17:08.429Z,10.47
2023-03-10T11:19:49.696Z,10.73
2023-03-10T11:22:26.590Z,10.37
2023-03-10T11:24:57.239Z,8.90
2023-03-10T11:27:28.088Z,9.20
2023-03-10T11:30:05.608Z,10.70
2023-03-10T11:32:40.991Z,11.33
2023-03-10T11:35:17.711Z,6.80
2023-03-10T11:37:48.537Z,10.67
2023-03-10T11:40:19.732Z,9.63
2023-03-10T11:42:52.580Z,10.23
2023-03-10T11:45:29.145Z,6.23
2023-03-10T11:48:06.860Z,6.37
2023-03-10T11:50:41.198Z,9.27
2023-03-10T11:53:13.555Z,5.67
2023-03-10T11:55:42.340Z,7.03
2023-03-10T11:58:19.983Z,8.20
2023-03-10T12:00:50.356Z,10.33
2023-03-10T12:03:21.928Z,7.80
2023-03-10T12:05:53.404Z,9.90
2023-03-10T12:08:23.925Z,9.23
2023-03-10T12:10:52.328Z,11.97
2023-03-10T12:13:24.478Z,10.57
2023-03-10T12:15:57.236Z,8.53
2023-03-10T12:18:26.908Z,8.20
2023-03-10T12:21:16.218Z,9.87
2023-03-10T12:23:45.273Z,9.43
2023-03-10T12:26:13.069Z,10.30
2023-03-10T12:28:40.822Z,11.40
2023-03-10T12:31:11.427Z,11.43
2023-03-10T12:33:47.324Z,8.93
2023-03-10T12:36:17.874Z,10.13
2023-03-10T12:38:48.101Z,9.00
2023-03-10T12:41:46.984Z,11.87
2023-03-10T12:44:33.368Z,7.67
2023-03-10T12:47:10.619Z,8.53
2023-03-10T12:49:45.434Z,7.90
2023-03-10T12:52:22.906Z,6.77
2023-03-10T12:55:02.978Z,12.20
2023-03-10T12:57:35.396Z,11.17
2023-03-10T13:00:07.212Z,13.23
2023-03-10T13:02:39.383Z,11.13
2023-03-10T13:05:15.036Z,14.30
2023-03-10T13:07:46.648Z,9.47
2023-03-10T13:10:18.320Z,15.90
2023-03-10T13:12:49.339Z,11.97
2023-03-10T13:15:24.878Z,13.13
2023-03-10T13:17:55.176Z,10.63
2023-03-10T13:20:23.794Z,15.73
2023-03-10T13:22:55.732Z,14.57
2023-03-10T13:25:23.566Z,15.30
2023-03-10T13:27:53.788Z,17.53
2023-03-10T13:30:23.114Z,10.80
2023-03-10T13:32:55.049Z,12.87
2023-03-10T13:35:26.108Z,12.70
2023-03-10T13:38:12.250Z,17.00
2023-03-10T13:40:41.478Z,10.70
2023-03-10T13:43:26.557Z,11.63
2023-03-10T13:45:55.824Z,8.47
2023-03-10T13:48:24.393Z,11.07
2023-03-10T13:51:05.688Z,10.30
2023-03-10T13:53:33.508Z,11.70
2023-03-10T13:56:01.263Z,11.90
2023-03-10T13:58:30.285Z,13.83
2023-03-10T14:01:00.772Z,13.23
2023-03-10T14:03:30.996Z,13.10
2023-03-10T14:05:59.135Z,13.30
2023-03-10T14:08:30.867Z,19.43
2023-03-10T14:11:23.671Z,11.33
2023-03-10T14:13:52.722Z,10.57
2023-03-10T14:16:20.445Z,10.27
2023-03-10T14:18:48.179Z,9.13
2023-03-10T14:21:30.008Z,15.60
2023-03-10T14:24:03.906Z,10.93
2023-03-10T14:26:32.590Z,8.37
2023-03-10T14:29:02.977Z,11.00
2023-03-10T14:31:30.679Z,13.83
2023-03-10T14:33:58.379Z,17.00
2023-03-10T14:36:26.165Z,15.73
2023-03-10T14:38:53.843Z,18.33
2023-03-10T14:41:24.526Z,16.10
2023-03-10T14:43:52.800Z,10.80
2023-03-10T14:46:22.145Z,15.33
2023-03-10T14:48:50.017Z,14.27
2023-03-10T14:51:34.683Z,7.93
2023-03-10T14:54:03.752Z,9.27
2023-03-10T14:56:31.869Z,9.73
2023-03-10T14:59:02.251Z,10.17
2023-03-10T15:01:31.869Z,10.63
2023-03-10T15:03:59.601Z,9.57
2023-03-10T15:06:27.245Z,10.57
2023-03-10T15:08:54.930Z,7.03
2023-03-10T15:11:36.191Z,8.80
2023-03-10T15:14:05.595Z,9.63
2023-03-10T15:16:34.663Z,6.27
2023-03-10T15:19:02.374Z,12.67
2023-03-10T15:21:30.027Z,12.13
2023-03-10T15:23:57.673Z,11.67
2023-03-10T15:26:25.335Z,12.70
2023-03-10T15:28:53.211Z,11.20
2023-03-10T15:31:21.140Z,9.33
2023-03-10T15:33:50.508Z,9.00
2023-03-10T15:36:19.160Z,11.33
2023-03-10T15:38:46.882Z,10.23
2023-03-10T15:41:14.778Z,10.03
2023-03-10T15:43:42.474Z,17.20
2023-03-10T15:46:10.523Z,8.67
2023-03-10T15:48:38.271Z,10.53
2023-03-10T15:51:10.448Z,19.13
2023-03-10T15:53:38.462Z,11.70
2023-03-10T15:56:07.240Z,11.80
2023-03-10T15:58:35.084Z,16.03
2023-03-10T16:01:07.660Z,18.63
2023-03-10T16:03:36.239Z,16.83
2023-03-10T16:06:04.050Z,16.37
2023-03-10T16:08:37.337Z,11.17
2023-03-10T16:11:06.534Z,12.73
2023-03-10T16:13:34.263Z,11.80
2023-03-10T16:16:06.184Z,14.00
2023-03-10T16:18:34.365Z,11.77
2023-03-10T16:21:03.371Z,15.37
2023-03-10T16:23:34.136Z,15.20
2023-03-10T16:26:06.884Z,12.13
2023-03-10T16:28:34.896Z,11.37
2023-03-10T16:31:03.736Z,11.67
2023-03-10T16:33:32.040Z,15.13
2023-03-10T16:36:00.328Z,15.40
2023-03-10T16:38:28.369Z,14.20
2023-03-10T16:40:57.951Z,17.03
2023-03-10T16:43:29.266Z,12.83
2023-03-10T16:46:07.655Z,12.70
2023-03-10T16:48:37.302Z,14.93
2023-03-10T16:51:19.371Z,13.10
2023-03-10T16:53:47.244Z,13.13
2023-03-10T16:56:16.739Z,16.13
2023-03-10T16:58:44.539Z,16.27
2023-03-10T17:01:12.273Z,18.97
2023-03-10T17:03:40.527Z,13.33
2023-03-10T17:06:09.937Z,11.77
2023-03-10T17:08:37.845Z,13.93
2023-03-10T17:11:06.316Z,12.20
2023-03-10T17:13:36.679Z,18.27
2023-03-10T17:16:12.415Z,16.87
2023-03-10T17:18:40.201Z,13.10
2023-03-10T17:21:15.069Z,18.87
2023-03-10T17:23:43.145Z,16.97
2023-03-10T17:26:11.455Z,14.57
2023-03-10T17:28:41.590Z,16.90
2023-03-10T17:31:10.011Z,14.63
2023-03-10T17:33:37.675Z,9.70
2023-03-10T17:36:06.521Z,14.90
2023-03-10T17:38:34.269Z,15.63
2023-03-10T17:41:04.262Z,10.43
2023-03-10T17:43:34.598Z,7.27
2023-03-10T17:46:06.212Z,8.70
2023-03-10T17:48:34.426Z,8.83
2023-03-10T17:51:02.191Z,8.83
2023-03-10T17:53:30.626Z,12.40
2023-03-10T17:55:58.651Z,11.33
2023-03-10T17:58:26.985Z,7.80
2023-03-10T18:00:54.885Z,10.77
2023-03-10T18:03:24.062Z,10.60
2023-03-10T18:05:51.791Z,10.77
2023-03-10T18:08:19.497Z,7.23
2023-03-10T18:10:47.187Z,7.10
2023-03-10T18:13:14.906Z,9.57
2023-03-10T18:15:42.659Z,7.83
2023-03-10T18:18:10.384Z,7.03
2023-03-10T18:20:39.443Z,8.00
2023-03-10T18:23:07.182Z,8.37
2023-03-10T18:25:34.906Z,9.97
2023-03-10T18:28:02.620Z,10.90
2023-03-10T18:30:30.289Z,10.20
2023-03-10T18:32:57.977Z,9.07
2023-03-10T18:35:25.647Z,10.80
2023-03-10T18:37:55.631Z,11.03
2023-03-10T18:40:23.592Z,10.53
2023-03-10T18:42:51.251Z,11.20
2023-03-10T18:45:18.983Z,11.20
2023-03-10T18:47:46.976Z,10.57
2023-03-10T18:50:15.198Z,10.00
2023-03-10T18:52:43.039Z,11.23
2023-03-10T18:55:13.150Z,11.33
2023-03-10T18:57:41.170Z,10.23
2023-03-10T19:00:14.428Z,10.77
2023-03-10T19:02:42.464Z,9.00
2023-03-10T19:05:13.288Z,6.60
2023-03-10T19:07:41.089Z,9.10
2023-03-10T19:10:10.072Z,8.63
2023-03-10T19:12:39.341Z,7.90
2023-03-10T19:15:09.205Z,7.70
2023-03-10T19:17:37.730Z,6.87
2023-03-10T19:20:07.380Z,6.87
2023-03-10T19:22:35.169Z,6.97
2023-03-10T19:25:03.369Z,6.37
2023-03-10T19:27:31.325Z,7.63
2023-03-10T19:30:00.843Z,8.10
2023-03-10T19:32:29.050Z,8.53
2023-03-10T19:34:56.757Z,7.10
2023-03-10T19:37:24.384Z,7.97
2023-03-10T19:39:52.438Z,9.83
2023-03-10T19:42:20.086Z,9.83
2023-03-10T19:44:48.062Z,9.03
2023-03-10T19:47:19.194Z,9.80
2023-03-10T19:49:46.961Z,9.60
2023-03-10T19:52:14.603Z,9.37
2023-03-10T19:54:42.264Z,8.70
2023-03-10T19:57:13.109Z,9.07
2023-03-10T19:59:41.549Z,9.40
2023-03-10T20:02:12.689Z,10.40
2023-03-10T20:04:42.058Z,8.63
2023-03-10T20:07:09.889Z,10.53
2023-03-10T20:09:37.583Z,11.63
2023-03-10T20:12:05.743Z,9.27
2023-03-10T20:14:33.402Z,9.03
2023-03-10T20:17:01.093Z,6.20
2023-03-10T20:19:28.751Z,9.00
2023-03-10T20:21:57.751Z,6.77
2023-03-10T20:24:25.418Z,8.80
2023-03-10T20:26:53.048Z,9.20
2023-03-10T20:29:20.781Z,8.13
2023-03-10T20:31:48.491Z,7.50
2023-03-10T20:34:18.408Z,6.10
2023-03-10T20:36:46.138Z,8.57
2023-03-10T20:39:15.172Z,10.53
2023-03-10T20:41:45.004Z,11.27
2023-03-10T20:44:14.147Z,8.90
2023-03-10T20:46:42.715Z,7.67
2023-03-10T20:49:11.295Z,7.57
2023-03-10T20:51:39.642Z,8.43
2023-03-10T20:54:07.573Z,8.33
2023-03-10T20:56:36.722Z,8.50
2023-03-10T20:59:04.541Z,8.40
2023-03-10T21:01:32.424Z,9.00
2023-03-10T21:04:00.188Z,8.43
2023-03-10T21:06:28.944Z,8.97
2023-03-10T21:08:56.612Z,7.37
2023-03-10T21:11:24.312Z,8.53
2023-03-10T21:13:53.394Z,8.07
2023-03-10T21:16:21.435Z,6.57
2023-03-10T21:18:49.161Z,8.20
2023-03-10T21:21:16.856Z,5.47
2023-03-10T21:23:44.619Z,7.50
2023-03-10T21:26:13.449Z,8.20
2023-03-10T21:28:41.381Z,5.93
2023-03-10T21:31:10.476Z,6.20
2023-03-10T21:33:38.329Z,5.67
2023-03-10T21:36:06.708Z,8.07
2023-03-10T21:38:36.487Z,6.57
2023-03-10T21:41:05.590Z,6.90
2023-03-10T21:43:33.323Z,8.70
2023-03-10T21:46:01.044Z,6.87
2023-03-10T21:48:30.121Z,7.47
2023-03-10T21:50:57.813Z,7.30
2023-03-10T21:53:26.727Z,11.23
2023-03-10T21:55:54.876Z,11.90
2023-03-10T21:58:24.878Z,7.83
2023-03-10T22:00:55.711Z,7.40
2023-03-10T22:03:23.853Z,5.37
2023-03-10T22:05:53.024Z,6.00
2023-03-10T22:08:21.025Z,7.07
2023-03-10T22:10:48.841Z,5.57
2023-03-10T22:13:16.525Z,6.23
2023-03-10T22:15:44.404Z,6.33
2023-03-10T22:18:12.060Z,5.63
2023-03-10T22:20:39.784Z,5.53
2023-03-10T22:23:08.876Z,6.83
2023-03-10T22:25:36.632Z,6.43
2023-03-10T22:28:04.826Z,7.30
2023-03-10T22:30:32.641Z,6.83
2023-03-10T22:33:00.349Z,6.83
2023-03-10T22:35:28.043Z,6.70
2023-03-10T22:37:55.897Z,6.63
2023-03-10T22:40:26.186Z,6.80
2023-03-10T22:42:54.456Z,6.60
2023-03-10T22:45:23.756Z,7.50
2023-03-10T22:47:53.806Z,7.47
2023-03-10T22:50:23.458Z,7.17
2023-03-10T22:52:51.304Z,7.33
2023-03-10T22:55:23.535Z,6.60
2023-03-10T22:57:52.821Z,6.57
2023-03-10T23:00:22.230Z,6.03
2023-03-10T23:02:52.119Z,6.73
2023-03-10T23:05:20.061Z,7.07
2023-03-10T23:07:48.033Z,6.90
2023-03-10T23:10:18.432Z,6.80
2023-03-10T23:12:46.200Z,6.53
2023-03-10T23:15:24.932Z,6.20
2023-03-10T23:17:54.017Z,5.73
2023-03-10T23:20:24.256Z,5.70
2023-03-10T23:22:52.097Z,5.33
2023-03-10T23:25:25.271Z,5.40
2023-03-10T23:27:52.956Z,5.30
2023-03-10T23:30:22.099Z,4.00
2023-03-10T23:32:51.449Z,5.10
2023-03-10T23:35:21.397Z,4.53
2023-03-10T23:37:49.128Z,5.13
2023-03-10T23:40:18.242Z,4.63
2023-03-10T23:42:46.462Z,4.43
2023-03-10T23:45:15.818Z,4.67
2023-03-10T23:47:45.230Z,4.37
2023-03-10T23:50:17.685Z,3.97
2023-03-10T23:52:45.516Z,4.07
2023-03-10T23:55:14.773Z,4.67
2023-03-10T23:57:42.692Z,4.20
